createdAt,value
2023-02-07T00:02:19.270Z,100773.00
2023-02-07T00:04:52.864Z,100786.00
2023-02-07T00:07:26.217Z,100794.00
2023-02-07T00:09:53.232Z,100776.00
2023-02-07T00:12:26.187Z,100785.00
2023-02-07T00:14:59.660Z,100813.00
2023-02-07T00:17:29.030Z,100807.00
2023-02-07T00:20:02.238Z,100813.00
2023-02-07T00:22:44.237Z,100831.00
2023-02-07T00:25:18.071Z,100826.00
2023-02-07T00:27:52.361Z,100829.00
2023-02-07T00:30:19.408Z,100809.00
2023-02-07T00:32:46.348Z,100835.00
2023-02-07T00:35:20.273Z,100859.00
2023-02-07T00:37:53.218Z,100854.00
2023-02-07T00:40:26.199Z,100860.00
2023-02-07T00:42:53.104Z,100853.00
2023-02-07T00:45:26.178Z,100848.00
2023-02-07T00:47:53.098Z,100871.00
2023-02-07T00:50:26.201Z,100866.00
2023-02-07T00:52:53.089Z,100876.00
2023-02-07T00:55:20.028Z,100888.00
2023-02-07T00:57:53.220Z,100891.00
2023-02-07T01:00:20.291Z,100874.00
2023-02-07T01:02:47.209Z,100893.00
2023-02-07T01:05:20.207Z,100908.00
2023-02-07T01:07:47.092Z,100897.00
2023-02-07T01:10:20.196Z,100888.00
2023-02-07T01:12:47.075Z,100886.00
2023-02-07T01:15:20.238Z,100906.00
2023-02-07T01:17:47.166Z,100909.00
2023-02-07T01:20:21.260Z,100910.00
2023-02-07T01:22:48.157Z,100927.00
2023-02-07T01:25:21.233Z,100929.00
2023-02-07T01:27:54.248Z,100929.00
2023-02-07T01:30:21.200Z,100928.00
2023-02-07T01:32:55.209Z,100945.00
2023-02-07T01:35:22.112Z,100950.00
2023-02-07T01:37:55.211Z,100932.00
2023-02-07T01:40:22.183Z,100943.00
2023-02-07T01:42:55.267Z,100941.00
2023-02-07T01:45:38.267Z,100947.00
2023-02-07T01:48:26.218Z,100953.00
2023-02-07T01:50:53.472Z,100946.00
2023-02-07T01:53:30.217Z,100948.00
2023-02-07T01:55:59.780Z,100947.00
2023-02-07T01:58:33.314Z,100948.00
2023-02-07T02:01:02.641Z,100946.00
2023-02-07T02:03:36.850Z,100957.00
2023-02-07T02:06:03.922Z,100961.00
2023-02-07T02:08:30.778Z,100968.00
2023-02-07T02:11:32.308Z,100965.00
2023-02-07T02:14:24.285Z,100953.00
2023-02-07T02:17:25.273Z,100967.00
2023-02-07T02:20:45.151Z,100959.00
2023-02-07T02:23:51.285Z,100964.00
2023-02-07T02:26:52.269Z,100972.00
2023-02-07T02:30:22.618Z,100979.00
2023-02-07T02:33:02.280Z,100977.00
2023-02-07T02:35:50.473Z,100979.00
2023-02-07T02:38:42.249Z,100968.00
2023-02-07T02:41:15.676Z,100966.00
2023-02-07T02:43:54.266Z,100962.00
2023-02-07T02:46:30.812Z,100967.00
2023-02-07T02:49:04.252Z,100953.00
2023-02-07T02:51:38.264Z,100954.00
2023-02-07T02:54:24.745Z,100962.00
2023-02-07T02:57:04.266Z,100964.00
2023-02-07T03:00:13.184Z,100956.00
2023-02-07T03:03:23.303Z,100961.00
2023-02-07T03:06:05.163Z,100970.00
2023-02-07T03:09:03.295Z,100968.00
2023-02-07T03:11:30.738Z,100959.00
2023-02-07T03:14:32.278Z,100979.00
2023-02-07T03:17:35.232Z,100965.00
2023-02-07T03:20:29.235Z,100973.00
2023-02-07T03:22:57.939Z,100962.00
2023-02-07T03:25:31.283Z,100934.00
2023-02-07T03:27:58.209Z,100973.00
2023-02-07T03:30:35.343Z,100975.00
2023-02-07T03:33:05.750Z,100964.00
2023-02-07T03:36:26.259Z,100984.00
2023-02-07T03:38:53.144Z,100986.00
2023-02-07T03:41:52.292Z,100942.00
2023-02-07T03:44:27.370Z,100995.00
2023-02-07T03:46:54.701Z,100994.00
2023-02-07T03:49:28.263Z,100979.00
2023-02-07T03:52:01.246Z,101018.00
2023-02-07T03:54:28.127Z,101001.00
2023-02-07T03:57:01.337Z,101006.00
2023-02-07T03:59:35.301Z,100990.00
2023-02-07T04:02:02.253Z,101011.00
2023-02-07T04:04:29.501Z,101010.00
2023-02-07T04:07:03.290Z,101018.00
2023-02-07T04:09:30.335Z,101001.00
2023-02-07T04:12:03.322Z,100998.00
2023-02-07T04:14:36.302Z,101004.00
2023-02-07T04:17:03.153Z,101009.00
2023-02-07T04:19:30.045Z,101003.00
2023-02-07T04:22:03.302Z,101018.00
2023-02-07T04:24:30.281Z,101021.00
2023-02-07T04:27:04.294Z,101011.00
2023-02-07T04:29:31.196Z,101030.00
2023-02-07T04:32:04.372Z,101019.00
2023-02-07T04:34:31.281Z,101028.00
2023-02-07T04:37:04.289Z,101027.00
2023-02-07T04:39:31.180Z,101032.00
2023-02-07T04:41:58.014Z,101022.00
2023-02-07T04:44:31.329Z,101027.00
2023-02-07T04:46:58.167Z,101008.00
2023-02-07T04:49:33.806Z,101016.00
2023-02-07T04:52:01.199Z,101044.00
2023-02-07T04:54:34.344Z,101029.00
2023-02-07T04:57:01.214Z,101037.00
2023-02-07T04:59:28.114Z,101037.00
2023-02-07T05:02:01.307Z,101038.00
2023-02-07T05:04:28.306Z,101061.00
2023-02-07T05:07:01.368Z,101053.00
2023-02-07T05:09:28.222Z,101051.00
2023-02-07T05:12:01.323Z,101068.00
2023-02-07T05:14:34.334Z,101076.00
2023-02-07T05:17:01.213Z,101078.00
2023-02-07T05:19:28.136Z,101078.00
2023-02-07T05:22:01.369Z,101082.00
2023-02-07T05:24:28.207Z,101079.00
2023-02-07T05:27:01.327Z,101085.00
2023-02-07T05:29:28.185Z,101080.00
2023-02-07T05:32:01.335Z,101096.00
2023-02-07T05:34:28.277Z,101127.00
2023-02-07T05:37:02.310Z,101125.00
2023-02-07T05:39:29.200Z,101107.00
2023-02-07T05:42:02.360Z,101121.00
2023-02-07T05:44:29.210Z,101131.00
2023-02-07T05:47:02.360Z,101140.00
2023-02-07T05:49:29.230Z,101137.00
2023-02-07T05:52:02.391Z,101122.00
2023-02-07T05:54:29.281Z,101120.00
2023-02-07T05:57:02.355Z,101135.00
2023-02-07T05:59:29.282Z,101133.00
2023-02-07T06:02:02.332Z,101127.00
2023-02-07T06:04:29.234Z,101150.00
2023-02-07T06:06:56.212Z,101144.00
2023-02-07T06:09:29.374Z,101136.00
2023-02-07T06:12:05.084Z,101130.00
2023-02-07T06:14:32.146Z,101149.00
2023-02-07T06:17:05.335Z,101147.00
2023-02-07T06:19:38.966Z,101151.00
2023-02-07T06:22:12.339Z,101139.00
2023-02-07T06:24:39.248Z,101153.00
2023-02-07T06:27:12.338Z,101152.00
2023-02-07T06:29:39.229Z,101171.00
2023-02-07T06:32:15.376Z,101166.00
2023-02-07T06:34:42.300Z,101172.00
2023-02-07T06:37:15.378Z,101164.00
2023-02-07T06:39:42.379Z,101170.00
2023-02-07T06:42:09.375Z,101170.00
2023-02-07T06:44:42.513Z,101184.00
2023-02-07T06:47:09.598Z,101192.00
2023-02-07T06:49:43.421Z,101167.00
2023-02-07T06:52:10.483Z,101179.00
2023-02-07T06:54:44.408Z,101188.00
2023-02-07T06:57:14.629Z,101169.00
2023-02-07T06:59:50.450Z,101192.00
2023-02-07T07:02:17.410Z,101182.00
2023-02-07T07:04:50.420Z,101178.00
2023-02-07T07:07:23.372Z,101174.00
2023-02-07T07:09:56.405Z,101193.00
2023-02-07T07:12:23.341Z,101200.00
2023-02-07T07:14:56.448Z,101195.00
2023-02-07T07:17:23.806Z,101189.00
2023-02-07T07:19:57.456Z,101212.00
2023-02-07T07:22:24.457Z,101218.00
2023-02-07T07:24:58.459Z,101182.00
2023-02-07T07:27:25.596Z,101197.00
2023-02-07T07:29:52.563Z,101201.00
2023-02-07T07:32:33.977Z,101205.00
2023-02-07T07:35:02.437Z,101182.00
2023-02-07T07:37:36.488Z,101212.00
2023-02-07T07:40:03.801Z,101195.00
2023-02-07T07:42:30.882Z,101204.00
2023-02-07T07:45:04.411Z,101219.00
2023-02-07T07:47:31.352Z,101222.00
2023-02-07T07:50:04.462Z,101228.00
2023-02-07T07:52:33.966Z,101238.00
2023-02-07T07:55:04.557Z,101232.00
2023-02-07T07:57:38.374Z,101231.00
2023-02-07T08:00:12.523Z,101228.00
2023-02-07T08:02:39.671Z,101191.00
2023-02-07T08:05:07.028Z,101219.00
2023-02-07T08:07:40.789Z,101242.00
2023-02-07T08:10:14.404Z,101199.00
2023-02-07T08:12:43.285Z,101212.00
2023-02-07T08:15:17.491Z,101223.00
2023-02-07T08:17:51.437Z,101226.00
2023-02-07T08:20:18.762Z,101228.00
2023-02-07T08:22:52.401Z,101220.00
2023-02-07T08:25:19.645Z,101244.00
2023-02-07T08:27:53.460Z,101227.00
2023-02-07T08:30:20.851Z,101233.00
2023-02-07T08:32:47.925Z,101218.00
2023-02-07T08:35:21.491Z,101222.00
2023-02-07T08:37:55.449Z,101246.00
2023-02-07T08:40:22.458Z,101244.00
2023-02-07T08:42:56.580Z,101217.00
2023-02-07T08:45:23.712Z,101223.00
2023-02-07T08:47:57.542Z,101238.00
2023-02-07T08:50:24.725Z,101236.00
2023-02-07T08:52:58.510Z,101239.00
2023-02-07T08:55:25.433Z,101250.00
2023-02-07T08:57:58.407Z,101248.00
2023-02-07T09:00:25.299Z,101234.00
2023-02-07T09:02:58.405Z,101235.00
2023-02-07T09:05:25.359Z,101227.00
2023-02-07T09:07:58.444Z,101223.00
2023-02-07T09:10:26.229Z,101234.00
2023-02-07T09:12:53.241Z,101230.00
2023-02-07T09:15:26.472Z,101229.00
2023-02-07T09:17:59.446Z,101218.00
2023-02-07T09:20:26.343Z,101225.00
2023-02-07T09:22:54.075Z,101241.00
2023-02-07T09:25:27.454Z,101248.00
2023-02-07T09:27:54.413Z,101248.00
2023-02-07T09:30:28.479Z,101245.00
2023-02-07T09:32:56.790Z,101237.00
2023-02-07T09:35:30.436Z,101237.00
2023-02-07T09:37:57.358Z,101243.00
2023-02-07T09:40:30.420Z,101238.00
2023-02-07T09:43:16.913Z,101236.00
2023-02-07T09:45:53.550Z,101227.00
2023-02-07T09:48:42.451Z,101225.00
2023-02-07T09:51:09.448Z,101214.00
2023-02-07T09:53:57.469Z,101214.00
2023-02-07T09:56:25.751Z,101211.00
2023-02-07T09:59:32.504Z,101213.00
2023-02-07T10:02:01.337Z,101201.00
2023-02-07T10:04:42.465Z,101195.00
2023-02-07T10:07:10.385Z,101195.00
2023-02-07T10:09:46.461Z,101180.00
2023-02-07T10:12:59.059Z,101171.00
2023-02-07T10:15:55.533Z,101183.00
2023-02-07T10:18:54.630Z,101180.00
2023-02-07T10:22:07.459Z,101168.00
2023-02-07T10:25:27.148Z,101166.00
2023-02-07T10:28:46.477Z,101154.00
2023-02-07T10:31:15.445Z,101160.00
2023-02-07T10:34:11.470Z,101148.00
2023-02-07T10:36:38.376Z,101142.00
2023-02-07T10:39:28.479Z,101129.00
2023-02-07T10:41:55.415Z,101126.00
2023-02-07T10:44:28.481Z,101122.00
2023-02-07T10:47:03.049Z,101102.00
2023-02-07T10:49:43.493Z,101092.00
2023-02-07T10:52:36.154Z,101077.00
2023-02-07T10:55:12.521Z,101072.00
2023-02-07T10:57:40.709Z,101051.00
2023-02-07T11:00:33.552Z,101045.00
2023-02-07T11:03:19.345Z,101037.00
2023-02-07T11:06:13.494Z,101026.00
2023-02-07T11:08:40.621Z,101017.00
2023-02-07T11:11:26.489Z,101012.00
2023-02-07T11:13:53.721Z,101002.00
2023-02-07T11:16:28.609Z,101010.00
2023-02-07T11:19:04.166Z,100986.00
2023-02-07T11:21:40.587Z,100982.00
2023-02-07T11:24:30.480Z,100964.00
2023-02-07T11:27:09.264Z,100978.00
2023-02-07T11:29:48.859Z,100953.00
2023-02-07T11:32:23.629Z,100963.00
2023-02-07T11:34:56.598Z,100949.00
2023-02-07T11:37:37.523Z,100944.00
2023-02-07T11:40:19.886Z,100954.00
2023-02-07T11:43:03.554Z,100924.00
2023-02-07T11:45:38.836Z,100929.00
2023-02-07T11:48:12.512Z,100910.00
2023-02-07T11:50:40.708Z,100918.00
2023-02-07T11:53:14.527Z,100908.00
2023-02-07T11:55:41.801Z,100876.00
2023-02-07T11:58:39.561Z,100880.00
2023-02-07T12:01:23.551Z,100883.00
2023-02-07T12:04:00.661Z,100872.00
2023-02-07T12:07:05.551Z,100848.00
2023-02-07T12:09:40.643Z,100861.00
2023-02-07T12:12:15.575Z,100851.00
2023-02-07T12:14:57.541Z,100836.00
2023-02-07T12:17:54.847Z,100833.00
2023-02-07T12:20:46.571Z,100827.00
2023-02-07T12:23:44.705Z,100827.00
2023-02-07T12:27:10.510Z,100816.00
2023-02-07T12:29:52.491Z,100798.00
2023-02-07T12:32:53.602Z,100802.00
2023-02-07T12:35:56.962Z,100795.00
2023-02-07T12:38:39.511Z,100792.00
2023-02-07T12:41:32.654Z,100779.00
2023-02-07T12:44:30.844Z,100792.00
2023-02-07T12:47:15.629Z,100778.00
2023-02-07T12:50:06.566Z,100795.00
2023-02-07T12:53:09.637Z,100785.00
2023-02-07T12:55:42.208Z,100794.00
2023-02-07T12:58:49.532Z,100788.00
2023-02-07T13:02:12.094Z,100780.00
2023-02-07T13:05:07.666Z,100781.00
2023-02-07T13:08:09.447Z,100746.00
2023-02-07T13:11:29.564Z,100726.00
2023-02-07T13:14:30.575Z,100736.00
2023-02-07T13:17:39.487Z,100755.00
2023-02-07T13:20:44.663Z,100716.00
2023-02-07T13:23:34.818Z,100735.00
2023-02-07T13:26:15.618Z,100721.00
2023-02-07T13:28:57.641Z,100708.00
2023-02-07T13:31:47.678Z,100702.00
2023-02-07T13:34:18.751Z,100701.00
2023-02-07T13:36:53.641Z,100716.00
2023-02-07T13:39:46.940Z,100719.00
2023-02-07T13:42:49.565Z,100713.00
2023-02-07T13:45:51.271Z,100708.00
2023-02-07T13:48:41.646Z,100698.00
2023-02-07T13:51:36.159Z,100678.00
2023-02-07T13:54:55.692Z,100671.00
2023-02-07T13:57:39.953Z,100669.00
2023-02-07T14:00:19.584Z,100696.00
2023-02-07T14:03:04.822Z,100684.00
2023-02-07T14:05:49.574Z,100674.00
2023-02-07T14:08:16.587Z,100681.00
2023-02-07T14:11:00.385Z,100690.00
2023-02-07T14:13:27.289Z,100694.00
2023-02-07T14:16:17.621Z,100677.00
2023-02-07T14:18:51.715Z,100695.00
2023-02-07T14:21:25.614Z,100692.00
2023-02-07T14:24:04.702Z,100659.00
2023-02-07T14:26:47.788Z,100683.00
2023-02-07T14:29:20.652Z,100676.00
2023-02-07T14:32:21.635Z,100670.00
2023-02-07T14:35:33.659Z,100660.00
2023-02-07T14:38:20.506Z,100661.00
2023-02-07T14:41:01.796Z,100661.00
2023-02-07T14:44:08.700Z,100650.00
2023-02-07T14:46:53.719Z,100657.00
2023-02-07T14:49:49.709Z,100656.00
2023-02-07T14:52:29.516Z,100646.00
2023-02-07T14:55:08.687Z,100651.00
2023-02-07T14:57:45.313Z,100627.00
2023-02-07T15:00:21.646Z,100628.00
2023-02-07T15:02:56.927Z,100616.00
2023-02-07T15:05:38.656Z,100638.00
2023-02-07T15:08:21.653Z,100645.00
2023-02-07T15:11:06.485Z,100639.00
2023-02-07T15:13:50.675Z,100643.00
2023-02-07T15:16:25.255Z,100635.00
2023-02-07T15:19:05.680Z,100639.00
2023-02-07T15:21:37.542Z,100630.00
2023-02-07T15:24:22.607Z,100637.00
2023-02-07T15:26:50.890Z,100631.00
2023-02-07T15:29:43.620Z,100642.00
2023-02-07T15:32:31.796Z,100635.00
2023-02-07T15:35:11.418Z,100642.00
2023-02-07T15:37:44.687Z,100642.00
2023-02-07T15:40:18.626Z,100633.00
2023-02-07T15:43:05.699Z,100594.00
2023-02-07T15:45:40.017Z,100636.00
2023-02-07T15:48:15.299Z,100630.00
2023-02-07T15:50:48.688Z,100620.00
2023-02-07T15:53:19.956Z,100619.00
2023-02-07T15:55:54.647Z,100616.00
2023-02-07T15:58:23.917Z,100629.00
2023-02-07T16:00:57.745Z,100620.00
2023-02-07T16:03:29.682Z,100604.00
2023-02-07T16:06:26.711Z,100617.00
2023-02-07T16:09:05.648Z,100618.00
2023-02-07T16:11:44.691Z,100617.00
2023-02-07T16:14:20.470Z,100622.00
2023-02-07T16:17:01.692Z,100626.00
2023-02-07T16:19:30.880Z,100615.00
2023-02-07T16:22:17.649Z,100643.00
2023-02-07T16:24:45.682Z,100648.00
2023-02-07T16:27:29.695Z,100618.00
2023-02-07T16:30:03.728Z,100641.00
2023-02-07T16:32:39.722Z,100653.00
2023-02-07T16:35:25.522Z,100651.00
2023-02-07T16:37:59.727Z,100626.00
2023-02-07T16:40:26.698Z,100648.00
2023-02-07T16:43:00.749Z,100647.00
2023-02-07T16:45:28.980Z,100631.00
2023-02-07T16:47:56.764Z,100656.00
2023-02-07T16:50:32.710Z,100633.00
2023-02-07T16:52:59.709Z,100633.00
2023-02-07T16:55:33.728Z,100624.00
2023-02-07T16:58:00.626Z,100643.00
2023-02-07T17:00:33.693Z,100650.00
2023-02-07T17:03:00.722Z,100633.00
2023-02-07T17:05:34.687Z,100655.00
2023-02-07T17:08:01.618Z,100627.00
2023-02-07T17:10:37.933Z,100642.00
2023-02-07T17:13:11.704Z,100653.00
2023-02-07T17:15:44.695Z,100647.00
2023-02-07T17:18:12.559Z,100658.00
2023-02-07T17:20:46.706Z,100655.00
2023-02-07T17:23:19.727Z,100658.00
2023-02-07T17:25:46.788Z,100632.00
2023-02-07T17:28:14.164Z,100652.00
2023-02-07T17:30:47.788Z,100636.00
2023-02-07T17:33:14.790Z,100665.00
2023-02-07T17:35:48.744Z,100664.00
2023-02-07T17:38:15.804Z,100655.00
2023-02-07T17:40:49.700Z,100664.00
2023-02-07T17:43:16.848Z,100678.00
2023-02-07T17:45:56.866Z,100668.00
2023-02-07T17:48:23.937Z,100664.00
2023-02-07T17:50:57.725Z,100663.00
2023-02-07T17:53:24.817Z,100662.00
2023-02-07T17:55:58.742Z,100655.00
2023-02-07T17:58:25.699Z,100657.00
2023-02-07T18:00:58.810Z,100647.00
2023-02-07T18:03:32.745Z,100657.00
2023-02-07T18:05:59.739Z,100660.00
2023-02-07T18:08:33.767Z,100650.00
2023-02-07T18:11:00.783Z,100673.00
2023-02-07T18:13:27.808Z,100649.00
2023-02-07T18:16:01.765Z,100655.00
2023-02-07T18:18:28.866Z,100664.00
2023-02-07T18:20:55.908Z,100668.00
2023-02-07T18:23:29.704Z,100673.00
2023-02-07T18:25:56.721Z,100659.00
2023-02-07T18:28:23.941Z,100668.00
2023-02-07T18:30:57.852Z,100662.00
2023-02-07T18:33:24.892Z,100622.00
2023-02-07T18:36:05.714Z,100622.00
2023-02-07T18:38:32.725Z,100655.00
2023-02-07T18:40:59.828Z,100653.00
2023-02-07T18:43:33.873Z,100641.00
2023-02-07T18:46:00.919Z,100664.00
2023-02-07T18:48:34.758Z,100661.00
2023-02-07T18:51:11.048Z,100641.00
2023-02-07T18:53:44.738Z,100658.00
2023-02-07T18:56:14.155Z,100660.00
2023-02-07T18:58:41.202Z,100666.00
2023-02-07T19:01:16.815Z,100653.00
2023-02-07T19:03:44.078Z,100651.00
2023-02-07T19:06:17.765Z,100643.00
2023-02-07T19:08:50.773Z,100642.00
2023-02-07T19:11:18.001Z,100647.00
2023-02-07T19:13:51.745Z,100679.00
2023-02-07T19:16:22.358Z,100674.00
2023-02-07T19:18:55.767Z,100673.00
2023-02-07T19:21:24.297Z,100669.00
2023-02-07T19:23:57.789Z,100649.00
2023-02-07T19:26:31.758Z,100627.00
2023-02-07T19:29:05.809Z,100656.00
2023-02-07T19:31:39.826Z,100652.00
2023-02-07T19:34:06.998Z,100634.00
2023-02-07T19:36:40.767Z,100661.00
2023-02-07T19:39:08.394Z,100666.00
2023-02-07T19:41:41.778Z,100647.00
2023-02-07T19:44:08.735Z,100662.00
2023-02-07T19:46:35.758Z,100664.00
2023-02-07T19:49:11.664Z,100664.00
2023-02-07T19:51:45.827Z,100625.00
2023-02-07T19:54:12.879Z,100646.00
2023-02-07T19:56:39.870Z,100654.00
2023-02-07T19:59:13.807Z,100648.00
2023-02-07T20:01:40.917Z,100668.00
2023-02-07T20:04:14.965Z,100630.00
2023-02-07T20:06:42.032Z,100676.00
2023-02-07T20:09:09.395Z,100671.00
2023-02-07T20:11:42.755Z,100660.00
2023-02-07T20:14:16.845Z,100675.00
2023-02-07T20:16:50.791Z,100669.00
2023-02-07T20:19:17.804Z,100665.00
2023-02-07T20:21:44.871Z,100650.00
2023-02-07T20:24:18.818Z,100662.00
2023-02-07T20:26:51.823Z,100655.00
2023-02-07T20:29:25.840Z,100673.00
2023-02-07T20:31:52.855Z,100718.00
2023-02-07T20:34:26.859Z,100722.00
2023-02-07T20:36:53.817Z,100724.00
2023-02-07T20:39:28.780Z,100708.00
2023-02-07T20:41:55.839Z,100710.00
2023-02-07T20:44:23.502Z,100710.00
2023-02-07T20:46:56.827Z,100728.00
2023-02-07T20:49:29.111Z,100720.00
2023-02-07T20:52:03.777Z,100736.00
2023-02-07T20:54:37.789Z,100751.00
2023-02-07T20:57:04.758Z,100753.00
2023-02-07T20:59:38.806Z,100764.00
2023-02-07T21:02:05.847Z,100752.00
2023-02-07T21:04:32.966Z,100777.00
2023-02-07T21:07:06.848Z,100762.00
2023-02-07T21:09:40.781Z,100788.00
2023-02-07T21:12:08.217Z,100783.00
2023-02-07T21:14:41.829Z,100789.00
2023-02-07T21:17:08.884Z,100799.00
2023-02-07T21:19:42.769Z,100806.00
2023-02-07T21:22:15.832Z,100800.00
2023-02-07T21:24:43.777Z,100820.00
2023-02-07T21:27:17.880Z,100814.00
2023-02-07T21:29:44.920Z,100803.00
2023-02-07T21:32:18.781Z,100816.00
2023-02-07T21:34:45.876Z,100796.00
2023-02-07T21:37:21.191Z,100838.00
2023-02-07T21:39:49.092Z,100805.00
2023-02-07T21:42:16.067Z,100814.00
2023-02-07T21:44:49.885Z,100836.00
2023-02-07T21:47:17.019Z,100825.00
2023-02-07T21:49:50.848Z,100829.00
2023-02-07T21:52:17.824Z,100844.00
2023-02-07T21:54:51.864Z,100855.00
2023-02-07T21:57:25.803Z,100831.00
2023-02-07T21:59:53.588Z,100830.00
2023-02-07T22:02:20.774Z,100857.00
2023-02-07T22:04:54.992Z,100855.00
2023-02-07T22:07:22.047Z,100850.00
2023-02-07T22:09:56.803Z,100845.00
2023-02-07T22:12:29.846Z,100845.00
2023-02-07T22:14:57.659Z,100872.00
2023-02-07T22:17:30.926Z,100873.00
2023-02-07T22:20:04.890Z,100879.00
2023-02-07T22:22:37.859Z,100869.00
2023-02-07T22:25:05.153Z,100877.00
2023-02-07T22:27:38.775Z,100874.00
2023-02-07T22:30:10.459Z,100868.00
2023-02-07T22:32:48.961Z,100887.00
2023-02-07T22:35:22.890Z,100881.00
2023-02-07T22:37:49.825Z,100876.00
2023-02-07T22:40:23.831Z,100892.00
2023-02-07T22:42:50.896Z,100868.00
2023-02-07T22:45:24.847Z,100875.00
2023-02-07T22:47:51.929Z,100890.00
2023-02-07T22:50:25.889Z,100887.00
2023-02-07T22:52:53.000Z,100889.00
2023-02-07T22:55:26.897Z,100878.00
2023-02-07T22:57:53.870Z,100876.00
2023-02-07T23:00:27.987Z,100888.00
2023-02-07T23:02:55.057Z,100874.00
2023-02-07T23:05:28.822Z,100898.00
2023-02-07T23:07:55.876Z,100898.00
2023-02-07T23:10:29.825Z,100903.00
2023-02-07T23:12:56.811Z,100887.00
2023-02-07T23:15:23.905Z,100901.00
2023-02-07T23:17:57.923Z,100916.00
2023-02-07T23:20:31.892Z,100906.00
2023-02-07T23:22:59.162Z,100883.00
2023-02-07T23:25:32.889Z,100922.00
2023-02-07T23:28:00.016Z,100909.00
2023-02-07T23:30:33.891Z,100939.00
2023-02-07T23:33:00.978Z,100905.00
2023-02-07T23:35:28.057Z,100904.00
2023-02-07T23:38:01.826Z,100918.00
2023-02-07T23:40:29.063Z,100940.00
2023-02-07T23:43:02.832Z,100937.00
2023-02-07T23:45:36.586Z,100925.00
2023-02-07T23:48:09.941Z,100932.00
2023-02-07T23:50:36.945Z,100952.00
2023-02-07T23:53:10.918Z,100942.00
2023-02-07T23:55:48.918Z,100949.00
2023-02-07T23:58:16.650Z,100939.00
